Time;durP1;ratioP1;P1;durP2;ratioP2;P2;SDS_P1;SDS_P2;PMS_P1;PMS_P2;Temp;Humidity;BMP_temperature;BMP_pressure;BME280_temperature;BME280_humidity;BME280_pressure;Samples;Min_cycle;Max_cycle;Signal;HPM_P1;HPM_P2
2022/03/08 00:00:25;;;;;;;399.17;91.20;;;;;;;;;;6229070;28;20137;-49
2022/03/08 00:03:41;;;;;;;293.08;74.28;;;;;;;;;;6237016;28;20064;-56
2022/03/08 00:06:42;;;;;;;193.73;54.20;;;;;;;;;;6242683;28;20041;-53
2022/03/08 00:09:46;;;;;;;168.20;48.33;;;;;;;;;;6238553;28;20049;-53
2022/03/08 00:12:47;;;;;;;172.57;48.58;;;;;;;;;;6235394;28;20046;-56
2022/03/08 00:15:49;;;;;;;152.10;47.90;;;;;;;;;;6242609;28;20038;-56
2022/03/08 00:18:49;;;;;;;154.75;47.25;;;;;;;;;;6238665;28;20129;-59
2022/03/08 00:21:50;;;;;;;178.18;48.75;;;;;;;;;;6239943;28;20041;-54
2022/03/08 00:24:51;;;;;;;153.13;45.40;;;;;;;;;;6240407;28;20125;-59
2022/03/08 00:27:52;;;;;;;141.55;42.50;;;;;;;;;;6243208;28;20076;-60
2022/03/08 00:30:52;;;;;;;131.52;41.33;;;;;;;;;;6239700;28;20063;-57
2022/03/08 00:33:53;;;;;;;114.20;36.33;;;;;;;;;;6235804;28;20404;-54
2022/03/08 00:36:54;;;;;;;124.65;36.75;;;;;;;;;;6241005;28;20455;-53
2022/03/08 00:39:55;;;;;;;131.90;37.35;;;;;;;;;;6243586;28;20045;-53
2022/03/08 00:42:55;;;;;;;115.60;34.50;;;;;;;;;;6242115;28;20477;-61
2022/03/08 00:45:56;;;;;;;120.00;35.58;;;;;;;;;;6239195;28;20136;-52
2022/03/08 00:48:56;;;;;;;117.43;34.55;;;;;;;;;;6242863;28;20787;-55
2022/03/08 00:51:57;;;;;;;120.75;34.38;;;;;;;;;;6242571;28;20341;-57
2022/03/08 00:54:58;;;;;;;115.65;34.65;;;;;;;;;;6239796;28;20167;-56
2022/03/08 00:57:59;;;;;;;114.53;35.30;;;;;;;;;;6239576;28;20091;-49
2022/03/08 01:01:00;;;;;;;108.40;34.75;;;;;;;;;;6238248;28;20049;-52
2022/03/08 01:04:00;;;;;;;109.00;35.00;;;;;;;;;;6235719;28;20092;-48
2022/03/08 01:07:01;;;;;;;105.40;34.35;;;;;;;;;;6232400;28;20045;-56
2022/03/08 01:10:04;;;;;;;109.22;34.67;;;;;;;;;;6237785;28;20080;-48
2022/03/08 01:13:05;;;;;;;106.75;33.58;;;;;;;;;;6235469;28;20055;-53
2022/03/08 01:16:06;;;;;;;93.28;31.50;;;;;;;;;;6238908;28;20073;-50
2022/03/08 01:19:07;;;;;;;95.53;30.90;;;;;;;;;;6242497;28;20120;-51
2022/03/08 01:22:07;;;;;;;99.03;32.05;;;;;;;;;;6236927;28;20045;-59
2022/03/08 01:25:10;;;;;;;99.07;31.15;;;;;;;;;;6236049;28;20060;-55
2022/03/08 01:28:11;;;;;;;94.47;30.73;;;;;;;;;;6242058;28;20052;-53
2022/03/08 01:31:11;;;;;;;101.13;30.00;;;;;;;;;;6240719;28;20662;-59
2022/03/08 01:34:12;;;;;;;86.68;29.75;;;;;;;;;;6234174;28;20136;-56
2022/03/08 01:37:13;;;;;;;94.95;29.17;;;;;;;;;;6236039;28;20369;-54
2022/03/08 01:40:15;;;;;;;107.75;31.38;;;;;;;;;;6239050;28;20037;-59
2022/03/08 01:43:15;;;;;;;116.70;34.63;;;;;;;;;;6236505;28;20057;-56
2022/03/08 01:46:16;;;;;;;104.20;33.35;;;;;;;;;;6235874;28;20514;-59
2022/03/08 01:49:17;;;;;;;115.85;32.80;;;;;;;;;;6228191;28;20172;-61
2022/03/08 01:52:21;;;;;;;116.68;33.25;;;;;;;;;;6232569;28;20073;-50
2022/03/08 01:55:22;;;;;;;112.60;35.28;;;;;;;;;;6235945;28;20046;-50
2022/03/08 01:58:23;;;;;;;101.88;32.15;;;;;;;;;;6241158;28;20041;-54
2022/03/08 02:01:23;;;;;;;98.53;31.90;;;;;;;;;;6242568;28;20444;-57
2022/03/08 02:04:24;;;;;;;100.68;30.90;;;;;;;;;;6232550;28;20062;-56
2022/03/08 02:07:24;;;;;;;99.13;31.33;;;;;;;;;;6240422;28;20115;-60
2022/03/08 02:10:26;;;;;;;101.13;30.60;;;;;;;;;;6236293;28;20068;-54
2022/03/08 02:13:26;;;;;;;93.20;31.08;;;;;;;;;;6225418;28;20143;-51
2022/03/08 02:16:27;;;;;;;98.25;33.75;;;;;;;;;;6226667;28;20664;-55
2022/03/08 02:19:28;;;;;;;98.05;32.95;;;;;;;;;;6230266;28;20140;-57
2022/03/08 02:22:29;;;;;;;95.70;33.78;;;;;;;;;;6229228;28;20049;-54
2022/03/08 02:25:29;;;;;;;96.65;32.70;;;;;;;;;;6229385;28;20057;-58
2022/03/08 02:28:30;;;;;;;92.32;32.83;;;;;;;;;;6230904;28;20049;-53
2022/03/08 02:31:32;;;;;;;97.40;33.35;;;;;;;;;;6231181;28;20587;-56
2022/03/08 02:34:32;;;;;;;95.60;32.47;;;;;;;;;;6225870;28;20505;-50
2022/03/08 02:38:06;;;;;;;97.63;32.72;;;;;;;;;;6224799;28;20049;-57
2022/03/08 02:41:07;;;;;;;91.63;30.08;;;;;;;;;;6225103;28;20069;-56
2022/03/08 02:44:07;;;;;;;97.18;34.20;;;;;;;;;;6224147;28;20045;-56
2022/03/08 02:47:08;;;;;;;92.85;31.75;;;;;;;;;;6227414;28;20053;-54
2022/03/08 02:50:11;;;;;;;95.30;32.65;;;;;;;;;;6230438;28;20053;-59
2022/03/08 02:53:12;;;;;;;83.88;29.05;;;;;;;;;;6228087;28;20489;-56
2022/03/08 02:56:12;;;;;;;84.30;27.83;;;;;;;;;;6227464;28;20092;-57
2022/03/08 02:59:23;;;;;;;84.30;27.83;;;;;;;;;;6231179;28;20049;-57
2022/03/08 03:02:23;;;;;;;88.22;27.50;;;;;;;;;;6225301;28;20448;-56
2022/03/08 03:05:24;;;;;;;83.80;27.33;;;;;;;;;;6225567;28;20060;-56
2022/03/08 03:08:25;;;;;;;83.63;27.05;;;;;;;;;;6228256;28;20485;-54
2022/03/08 03:11:26;;;;;;;86.78;27.98;;;;;;;;;;6226595;28;20060;-57
2022/03/08 03:14:26;;;;;;;91.95;27.45;;;;;;;;;;6227960;28;20045;-60
2022/03/08 03:17:27;;;;;;;84.10;28.98;;;;;;;;;;6226297;28;20089;-59
2022/03/08 03:20:28;;;;;;;90.93;28.27;;;;;;;;;;6228779;28;20080;-54
2022/03/08 03:23:29;;;;;;;94.63;26.65;;;;;;;;;;6231310;28;20052;-57
2022/03/08 03:26:29;;;;;;;106.90;28.20;;;;;;;;;;6230658;28;20143;-60
2022/03/08 03:29:30;;;;;;;84.50;26.10;;;;;;;;;;6234096;28;20053;-55
2022/03/08 03:32:31;;;;;;;84.13;27.73;;;;;;;;;;6232412;28;20057;-55
2022/03/08 03:35:32;;;;;;;85.65;27.50;;;;;;;;;;6231046;28;20064;-60
2022/03/08 03:38:32;;;;;;;89.97;28.52;;;;;;;;;;6230680;28;20046;-58
2022/03/08 03:41:33;;;;;;;88.20;28.23;;;;;;;;;;6234699;28;20041;-57
2022/03/08 03:44:34;;;;;;;87.50;27.35;;;;;;;;;;6225493;28;20050;-53
2022/03/08 03:47:35;;;;;;;78.80;26.20;;;;;;;;;;6229688;28;20469;-54
2022/03/08 03:50:35;;;;;;;87.15;28.10;;;;;;;;;;6235382;28;20136;-59
2022/03/08 03:53:36;;;;;;;92.78;28.02;;;;;;;;;;6230886;28;20060;-59
2022/03/08 03:56:36;;;;;;;96.90;29.15;;;;;;;;;;6229742;28;20764;-54
2022/03/08 03:59:39;;;;;;;97.95;28.88;;;;;;;;;;6234214;28;20129;-56
2022/03/08 04:02:40;;;;;;;91.68;29.40;;;;;;;;;;6227265;28;20057;-51
2022/03/08 04:05:41;;;;;;;82.38;27.80;;;;;;;;;;6233193;28;20056;-60
2022/03/08 04:08:42;;;;;;;82.38;26.52;;;;;;;;;;6231072;28;20128;-56
2022/03/08 04:11:42;;;;;;;85.15;29.52;;;;;;;;;;6234190;28;20060;-57
2022/03/08 04:14:43;;;;;;;81.80;27.02;;;;;;;;;;6231581;28;20124;-57
2022/03/08 04:17:44;;;;;;;92.65;29.88;;;;;;;;;;6228955;28;20057;-52
2022/03/08 04:20:45;;;;;;;127.45;33.85;;;;;;;;;;6231331;28;20124;-52
2022/03/08 04:23:46;;;;;;;109.37;33.90;;;;;;;;;;6232814;28;20128;-53
2022/03/08 04:26:47;;;;;;;110.60;33.67;;;;;;;;;;6231786;28;20381;-54
2022/03/08 04:29:48;;;;;;;107.28;32.53;;;;;;;;;;6236640;28;20135;-54
2022/03/08 04:32:51;;;;;;;105.70;35.42;;;;;;;;;;6228899;28;20084;-58
2022/03/08 04:35:52;;;;;;;113.20;33.13;;;;;;;;;;6225693;28;20054;-60
2022/03/08 04:38:53;;;;;;;105.95;33.65;;;;;;;;;;6234198;28;20191;-50
2022/03/08 04:41:53;;;;;;;99.50;33.08;;;;;;;;;;6231605;28;20578;-59
2022/03/08 04:44:54;;;;;;;101.55;32.47;;;;;;;;;;6232298;28;20049;-60
2022/03/08 04:47:55;;;;;;;103.30;32.33;;;;;;;;;;6235197;28;20510;-49
2022/03/08 04:50:55;;;;;;;78.35;28.38;;;;;;;;;;6230186;28;20041;-54
2022/03/08 04:53:56;;;;;;;85.53;30.17;;;;;;;;;;6236511;28;20392;-59
2022/03/08 04:56:57;;;;;;;101.93;32.67;;;;;;;;;;6227607;28;20048;-59
2022/03/08 04:59:57;;;;;;;100.38;31.10;;;;;;;;;;6224518;28;20034;-60
2022/03/08 05:02:58;;;;;;;83.45;28.05;;;;;;;;;;6229943;28;20619;-56
2022/03/08 05:05:59;;;;;;;92.38;29.27;;;;;;;;;;6230164;28;20042;-60
2022/03/08 05:09:00;;;;;;;101.22;32.95;;;;;;;;;;6234427;28;20136;-53
2022/03/08 05:12:00;;;;;;;141.65;39.53;;;;;;;;;;6230832;28;20053;-59
2022/03/08 05:15:02;;;;;;;164.27;43.80;;;;;;;;;;6228613;28;20057;-59
2022/03/08 05:18:03;;;;;;;131.27;39.77;;;;;;;;;;6227003;28;20085;-56
2022/03/08 05:21:04;;;;;;;168.82;47.80;;;;;;;;;;6234145;28;20848;-55
2022/03/08 05:24:04;;;;;;;163.90;41.10;;;;;;;;;;6233964;28;20041;-58
2022/03/08 05:27:05;;;;;;;174.00;40.88;;;;;;;;;;6219844;28;20930;-54
2022/03/08 05:30:07;;;;;;;94.10;30.75;;;;;;;;;;6232799;28;20049;-58
2022/03/08 05:33:07;;;;;;;101.10;35.75;;;;;;;;;;6230657;28;20077;-57
2022/03/08 05:36:08;;;;;;;115.25;37.17;;;;;;;;;;6227321;28;20134;-52
2022/03/08 05:39:09;;;;;;;177.43;53.50;;;;;;;;;;6228423;28;20042;-56
2022/03/08 05:42:09;;;;;;;211.55;58.83;;;;;;;;;;6229345;28;20076;-51
2022/03/08 05:45:11;;;;;;;149.65;47.92;;;;;;;;;;6225742;28;21084;-55
2022/03/08 05:48:12;;;;;;;118.70;37.30;;;;;;;;;;6229750;28;20073;-59
2022/03/08 05:51:12;;;;;;;122.78;37.75;;;;;;;;;;6239229;28;20677;-56
2022/03/08 05:54:13;;;;;;;113.22;34.45;;;;;;;;;;6240128;28;20047;-55
2022/03/08 05:57:14;;;;;;;137.73;39.72;;;;;;;;;;6232645;28;20184;-55
2022/03/08 06:00:15;;;;;;;92.35;33.30;;;;;;;;;;6224870;28;20079;-56
2022/03/08 06:03:15;;;;;;;130.13;37.13;;;;;;;;;;6234643;28;20392;-59
2022/03/08 06:06:16;;;;;;;105.65;37.78;;;;;;;;;;6239995;28;20447;-57
2022/03/08 06:09:17;;;;;;;114.68;35.17;;;;;;;;;;6229951;28;20124;-49
2022/03/08 06:12:17;;;;;;;108.40;37.88;;;;;;;;;;6234434;28;20463;-55
2022/03/08 06:15:18;;;;;;;99.50;32.90;;;;;;;;;;6220921;28;20099;-62
2022/03/08 06:18:19;;;;;;;107.20;35.65;;;;;;;;;;6234117;28;20046;-52
2022/03/08 06:21:21;;;;;;;103.50;35.63;;;;;;;;;;6242009;28;20566;-54
2022/03/08 06:24:22;;;;;;;104.57;36.88;;;;;;;;;;6231112;28;20416;-52
2022/03/08 06:27:23;;;;;;;105.43;36.03;;;;;;;;;;6241190;28;20073;-57
2022/03/08 06:30:24;;;;;;;104.93;36.25;;;;;;;;;;6225002;28;20077;-59
2022/03/08 06:33:24;;;;;;;110.50;34.25;;;;;;;;;;6233686;28;20050;-61
2022/03/08 06:36:25;;;;;;;95.80;32.65;;;;;;;;;;6238864;28;20049;-61
2022/03/08 06:39:26;;;;;;;103.57;32.85;;;;;;;;;;6240383;28;20144;-61
2022/03/08 06:42:27;;;;;;;118.68;37.05;;;;;;;;;;6240197;28;20415;-57
2022/03/08 06:45:27;;;;;;;116.07;35.33;;;;;;;;;;6233135;28;20048;-55
2022/03/08 06:48:28;;;;;;;117.95;34.67;;;;;;;;;;6227579;28;20053;-60
2022/03/08 06:51:28;;;;;;;113.45;35.35;;;;;;;;;;6232950;28;20131;-57
2022/03/08 06:54:29;;;;;;;106.68;34.92;;;;;;;;;;6234233;28;20053;-60
2022/03/08 06:57:30;;;;;;;105.03;35.42;;;;;;;;;;6237774;28;20153;-59
2022/03/08 07:00:31;;;;;;;106.63;34.35;;;;;;;;;;6236490;28;20424;-60
2022/03/08 07:03:31;;;;;;;143.43;43.85;;;;;;;;;;6236081;28;20085;-57
2022/03/08 07:06:32;;;;;;;116.80;38.72;;;;;;;;;;6235524;28;20041;-60
2022/03/08 07:09:33;;;;;;;122.70;41.40;;;;;;;;;;6231957;28;20534;-57
2022/03/08 07:12:33;;;;;;;143.63;51.33;;;;;;;;;;6237890;28;20488;-56
2022/03/08 07:15:34;;;;;;;113.90;35.58;;;;;;;;;;6233127;28;20110;-60
2022/03/08 07:18:35;;;;;;;104.82;34.55;;;;;;;;;;6236350;28;20464;-54
2022/03/08 07:21:36;;;;;;;112.30;36.78;;;;;;;;;;6237534;28;20116;-51
2022/03/08 07:24:36;;;;;;;117.68;36.00;;;;;;;;;;6238616;28;20168;-60
2022/03/08 07:27:38;;;;;;;107.10;33.90;;;;;;;;;;6233924;28;20504;-59
2022/03/08 07:30:39;;;;;;;102.57;32.97;;;;;;;;;;6238253;28;20481;-53
2022/03/08 07:33:41;;;;;;;119.30;33.92;;;;;;;;;;6239759;28;20140;-56
2022/03/08 07:36:44;;;;;;;96.57;28.58;;;;;;;;;;6238563;28;20056;-59
2022/03/08 07:39:44;;;;;;;95.63;32.67;;;;;;;;;;6230774;28;20412;-56
2022/03/08 07:42:45;;;;;;;89.95;30.98;;;;;;;;;;6236384;28;20076;-56
2022/03/08 07:45:47;;;;;;;86.38;29.83;;;;;;;;;;6237571;28;20045;-56
2022/03/08 07:48:48;;;;;;;94.13;29.50;;;;;;;;;;6234286;28;20695;-56
2022/03/08 07:51:49;;;;;;;102.72;31.40;;;;;;;;;;6236663;28;20060;-54
2022/03/08 07:54:50;;;;;;;102.37;32.23;;;;;;;;;;6231255;28;20046;-58
2022/03/08 07:57:50;;;;;;;109.55;33.28;;;;;;;;;;6237200;28;20140;-59
2022/03/08 08:00:51;;;;;;;96.35;33.65;;;;;;;;;;6237051;28;20555;-55
2022/03/08 08:03:52;;;;;;;98.25;36.63;;;;;;;;;;6238452;28;20057;-60
2022/03/08 08:06:53;;;;;;;113.30;37.58;;;;;;;;;;6232626;28;20499;-58
2022/03/08 08:09:53;;;;;;;118.43;36.10;;;;;;;;;;6233327;28;20088;-61
2022/03/08 08:12:54;;;;;;;98.70;34.33;;;;;;;;;;6230696;28;20139;-53
2022/03/08 08:15:55;;;;;;;98.93;33.17;;;;;;;;;;6226670;28;20129;-58
2022/03/08 08:18:58;;;;;;;95.15;31.20;;;;;;;;;;6224063;28;20599;-57
2022/03/08 08:22:00;;;;;;;83.72;29.67;;;;;;;;;;6230355;28;20107;-56
2022/03/08 08:25:00;;;;;;;81.60;27.35;;;;;;;;;;6230891;28;20578;-60
2022/03/08 08:28:01;;;;;;;85.53;28.27;;;;;;;;;;6231495;28;20054;-56
2022/03/08 08:31:02;;;;;;;84.13;29.50;;;;;;;;;;6234123;28;20432;-59
2022/03/08 08:34:02;;;;;;;94.18;31.75;;;;;;;;;;6239201;28;20052;-59
2022/03/08 08:37:03;;;;;;;88.25;29.33;;;;;;;;;;6243992;28;20524;-60
2022/03/08 08:40:05;;;;;;;84.20;28.95;;;;;;;;;;6241382;28;20479;-58
2022/03/08 08:43:07;;;;;;;97.17;32.70;;;;;;;;;;6239533;28;20484;-60
2022/03/08 08:46:08;;;;;;;90.18;32.42;;;;;;;;;;6229452;28;20077;-60
2022/03/08 08:49:08;;;;;;;102.18;33.75;;;;;;;;;;6232152;28;20500;-61
2022/03/08 08:52:09;;;;;;;100.53;30.85;;;;;;;;;;6240070;28;20187;-59
2022/03/08 08:55:10;;;;;;;83.88;27.23;;;;;;;;;;6237632;28;20065;-61
2022/03/08 08:58:11;;;;;;;78.10;25.60;;;;;;;;;;6240401;28;20059;-59
2022/03/08 09:01:12;;;;;;;120.53;32.40;;;;;;;;;;6236327;28;20049;-53
2022/03/08 09:04:13;;;;;;;92.40;27.40;;;;;;;;;;6226917;28;20138;-63
2022/03/08 09:07:13;;;;;;;78.68;27.90;;;;;;;;;;6232206;28;20045;-53
2022/03/08 09:10:15;;;;;;;118.93;35.58;;;;;;;;;;6230047;28;20034;-53
2022/03/08 09:13:16;;;;;;;75.22;23.45;;;;;;;;;;6225618;28;20590;-54
2022/03/08 09:16:17;;;;;;;86.70;27.70;;;;;;;;;;6230646;28;20128;-59
2022/03/08 09:19:18;;;;;;;81.15;27.60;;;;;;;;;;6233204;28;20399;-61
2022/03/08 09:22:18;;;;;;;94.47;30.05;;;;;;;;;;6224746;28;20052;-56
2022/03/08 09:25:19;;;;;;;78.25;25.90;;;;;;;;;;6225681;28;20136;-60
2022/03/08 09:28:20;;;;;;;69.70;24.90;;;;;;;;;;6230583;28;20038;-59
2022/03/08 09:31:21;;;;;;;69.75;23.38;;;;;;;;;;6229609;28;20476;-60
2022/03/08 09:34:21;;;;;;;59.22;21.58;;;;;;;;;;6224764;28;20605;-61
2022/03/08 09:37:22;;;;;;;59.65;21.88;;;;;;;;;;6230559;28;20045;-61
2022/03/08 09:40:23;;;;;;;39.75;15.38;;;;;;;;;;6228264;28;20073;-53
2022/03/08 09:43:24;;;;;;;39.00;14.17;;;;;;;;;;6228620;28;20050;-59
2022/03/08 09:46:25;;;;;;;48.08;14.25;;;;;;;;;;6229289;28;20045;-54
2022/03/08 09:49:26;;;;;;;42.70;14.27;;;;;;;;;;6229062;28;20049;-57
2022/03/08 09:52:26;;;;;;;35.85;13.05;;;;;;;;;;6228937;28;20504;-53
2022/03/08 09:55:28;;;;;;;37.80;13.23;;;;;;;;;;6230937;28;20042;-59
2022/03/08 09:58:28;;;;;;;40.60;15.30;;;;;;;;;;6228115;28;20049;-54
2022/03/08 10:01:29;;;;;;;40.25;14.30;;;;;;;;;;6236121;28;20045;-59
2022/03/08 10:04:30;;;;;;;40.05;13.88;;;;;;;;;;6235056;28;20183;-60
2022/03/08 10:07:31;;;;;;;35.10;13.63;;;;;;;;;;6231556;28;20059;-59
2022/03/08 10:10:32;;;;;;;39.92;14.25;;;;;;;;;;6228474;28;20137;-59
2022/03/08 10:13:40;;;;;;;39.60;13.43;;;;;;;;;;6227133;28;20069;-58
2022/03/08 10:16:48;;;;;;;36.97;13.32;;;;;;;;;;6229430;28;20060;-57
2022/03/08 10:19:49;;;;;;;40.40;14.18;;;;;;;;;;6228236;28;20571;-59
2022/03/08 10:22:49;;;;;;;39.40;12.98;;;;;;;;;;6228028;28;20049;-57
2022/03/08 10:25:51;;;;;;;37.45;12.82;;;;;;;;;;6229550;28;20056;-58
2022/03/08 10:28:54;;;;;;;34.97;13.05;;;;;;;;;;6229830;28;20455;-61
2022/03/08 10:32:09;;;;;;;47.72;15.15;;;;;;;;;;6240144;28;20140;-59
2022/03/08 10:35:10;;;;;;;45.75;15.60;;;;;;;;;;6232036;28;20049;-61
2022/03/08 10:38:14;;;;;;;44.93;15.37;;;;;;;;;;6234021;28;20374;-54
2022/03/08 10:41:19;;;;;;;39.63;14.70;;;;;;;;;;6228243;28;20314;-57
2022/03/08 10:44:49;;;;;;;39.45;14.30;;;;;;;;;;6228631;28;20081;-59
2022/03/08 10:47:51;;;;;;;42.97;14.57;;;;;;;;;;6224743;28;20402;-56
2022/03/08 10:50:54;;;;;;;;;;;;;;;;;;6219934;28;20128;-60
2022/03/08 10:54:10;;;;;;;39.20;14.50;;;;;;;;;;6225602;28;20008;-58
2022/03/08 10:57:10;;;;;;;35.78;13.68;;;;;;;;;;6230779;28;20189;-60
2022/03/08 11:00:14;;;;;;;39.67;14.68;;;;;;;;;;6227843;28;20042;-57
2022/03/08 11:03:18;;;;;;;36.10;14.20;;;;;;;;;;6228737;28;20465;-60
2022/03/08 11:06:19;;;;;;;33.75;13.43;;;;;;;;;;6226645;28;20061;-56
2022/03/08 11:09:21;;;;;;;40.00;15.38;;;;;;;;;;6224990;28;20482;-58
2022/03/08 11:12:22;;;;;;;43.70;14.30;;;;;;;;;;6231295;28;20140;-59
2022/03/08 11:15:25;;;;;;;37.90;15.32;;;;;;;;;;6226896;28;20127;-57
2022/03/08 11:18:27;;;;;;;33.00;14.75;;;;;;;;;;6228974;28;20081;-55
2022/03/08 11:21:31;;;;;;;35.30;12.65;;;;;;;;;;6231340;28;20088;-59
2022/03/08 11:24:33;;;;;;;33.80;12.98;;;;;;;;;;6231130;28;20460;-54
2022/03/08 11:27:35;;;;;;;33.90;14.13;;;;;;;;;;6226620;28;20137;-58
2022/03/08 11:30:41;;;;;;;;;;;;;;;;;;6224850;28;20049;-61
2022/03/08 11:33:59;;;;;;;34.33;12.68;;;;;;;;;;6232649;28;20008;-59
2022/03/08 11:37:07;;;;;;;33.83;12.45;;;;;;;;;;6231753;28;20153;-56
2022/03/08 11:40:13;;;;;;;35.60;14.65;;;;;;;;;;6229522;28;20084;-59
2022/03/08 11:43:14;;;;;;;29.80;11.82;;;;;;;;;;6231466;28;20053;-57
2022/03/08 11:46:21;;;;;;;32.85;12.18;;;;;;;;;;6230447;28;20124;-60
2022/03/08 11:49:53;;;;;;;31.80;11.63;;;;;;;;;;6232988;28;20133;-57
2022/03/08 11:53:18;;;;;;;25.52;10.50;;;;;;;;;;6226322;28;20042;-54
2022/03/08 11:56:20;;;;;;;29.10;12.18;;;;;;;;;;6233511;28;20092;-60
2022/03/08 11:59:21;;;;;;;32.20;12.57;;;;;;;;;;6231560;28;20443;-58
2022/03/08 12:02:22;;;;;;;31.42;14.10;;;;;;;;;;6231675;28;20186;-59
2022/03/08 12:05:37;;;;;;;31.65;13.88;;;;;;;;;;6230687;28;20396;-59
2022/03/08 12:08:43;;;;;;;30.27;12.50;;;;;;;;;;6232213;28;20072;-60
2022/03/08 12:11:53;;;;;;;31.27;11.45;;;;;;;;;;6231229;28;20148;-59
2022/03/08 12:15:02;;;;;;;32.25;12.82;;;;;;;;;;6225750;28;20700;-58
2022/03/08 12:18:17;;;;;;;33.28;12.35;;;;;;;;;;6231600;28;20443;-53
2022/03/08 12:21:18;;;;;;;32.03;13.82;;;;;;;;;;6231191;28;20050;-57
2022/03/08 12:24:21;;;;;;;44.53;15.63;;;;;;;;;;6233068;28;20054;-58
2022/03/08 12:27:22;;;;;;;43.58;18.17;;;;;;;;;;6231382;28;20381;-59
2022/03/08 12:30:46;;;;;;;41.10;16.55;;;;;;;;;;6234874;28;20083;-55
2022/03/08 12:34:06;;;;;;;33.25;14.20;;;;;;;;;;6232638;28;20077;-56
2022/03/08 12:37:19;;;;;;;39.63;14.80;;;;;;;;;;6232552;28;20081;-54
2022/03/08 12:40:27;;;;;;;36.58;16.33;;;;;;;;;;6230996;28;20436;-57
2022/03/08 12:43:28;;;;;;;44.83;17.52;;;;;;;;;;6230126;28;20057;-57
2022/03/08 12:46:29;;;;;;;40.33;16.42;;;;;;;;;;6226424;28;20125;-56
2022/03/08 12:49:30;;;;;;;43.05;17.15;;;;;;;;;;6232711;28;20045;-60
2022/03/08 12:52:36;;;;;;;40.15;15.45;;;;;;;;;;6229236;28;20057;-56
2022/03/08 12:55:53;;;;;;;42.47;16.00;;;;;;;;;;6239398;28;20068;-59
2022/03/08 12:59:04;;;;;;;34.60;15.00;;;;;;;;;;6240380;28;20141;-56
2022/03/08 13:02:09;;;;;;;37.20;15.70;;;;;;;;;;6236387;28;20088;-57
2022/03/08 13:05:09;;;;;;;32.08;13.88;;;;;;;;;;6231668;28;20076;-55
2022/03/08 13:08:13;;;;;;;34.20;13.80;;;;;;;;;;6228896;28;20188;-59
2022/03/08 13:11:15;;;;;;;32.83;14.88;;;;;;;;;;6227010;28;20068;-60
2022/03/08 13:14:20;;;;;;;36.67;14.90;;;;;;;;;;6232797;28;20130;-60
2022/03/08 13:17:30;;;;;;;39.97;15.90;;;;;;;;;;6239805;28;20045;-61
2022/03/08 13:20:36;;;;;;;35.20;15.63;;;;;;;;;;6240853;28;20432;-58
2022/03/08 13:23:39;;;;;;;38.80;15.90;;;;;;;;;;6228090;28;20055;-56
2022/03/08 13:26:50;;;;;;;33.03;15.90;;;;;;;;;;6233789;28;20041;-59
2022/03/08 13:29:50;;;;;;;38.92;16.25;;;;;;;;;;6211740;28;20061;-53
2022/03/08 13:33:16;;;;;;;34.58;16.48;;;;;;;;;;6214913;28;20148;-57
2022/03/08 13:36:20;;;;;;;39.20;16.00;;;;;;;;;;6216672;28;20177;-58
2022/03/08 13:39:20;;;;;;;38.95;16.45;;;;;;;;;;6217754;28;20441;-57
2022/03/08 13:42:28;;;;;;;29.65;14.23;;;;;;;;;;6217110;28;20060;-56
2022/03/08 13:45:30;;;;;;;35.42;15.77;;;;;;;;;;6217535;28;20188;-68
2022/03/08 13:48:34;;;;;;;37.58;16.10;;;;;;;;;;6215794;28;20132;-57
2022/03/08 13:51:37;;;;;;;38.90;17.05;;;;;;;;;;6216420;28;20068;-55
2022/03/08 13:54:39;;;;;;;41.17;17.67;;;;;;;;;;6216446;28;20042;-58
2022/03/08 13:57:51;;;;;;;;;;;;;;;;;;6212307;28;20160;-61
2022/03/08 14:00:52;;;;;;;33.13;16.35;;;;;;;;;;6219731;28;19921;-55
2022/03/08 14:03:56;;;;;;;38.58;17.00;;;;;;;;;;6215598;28;20935;-60
2022/03/08 14:06:57;;;;;;;39.38;16.60;;;;;;;;;;6216600;28;20060;-61
2022/03/08 14:10:00;;;;;;;42.47;16.75;;;;;;;;;;6213123;28;20749;-54
2022/03/08 14:13:08;;;;;;;38.85;16.65;;;;;;;;;;6214436;28;20104;-59
2022/03/08 14:16:09;;;;;;;41.08;17.17;;;;;;;;;;6215426;28;20109;-59
2022/03/08 14:19:10;;;;;;;38.72;16.33;;;;;;;;;;6212853;28;20063;-51
2022/03/08 14:22:11;;;;;;;36.83;15.98;;;;;;;;;;6218020;28;20081;-57
2022/03/08 14:25:12;;;;;;;35.72;17.20;;;;;;;;;;6215587;28;20050;-56
2022/03/08 14:28:13;;;;;;;39.17;17.58;;;;;;;;;;6213359;28;20570;-52
2022/03/08 14:31:33;;;;;;;38.25;16.83;;;;;;;;;;6214466;28;20050;-54
2022/03/08 14:34:36;;;;;;;42.45;16.45;;;;;;;;;;6213040;28;20126;-52
2022/03/08 14:37:37;;;;;;;40.05;17.15;;;;;;;;;;6213875;28;20100;-54
2022/03/08 14:40:45;;;;;;;41.72;17.40;;;;;;;;;;6217577;28;20222;-58
2022/03/08 14:43:46;;;;;;;40.47;17.75;;;;;;;;;;6220571;28;20053;-53
2022/03/08 14:46:47;;;;;;;41.50;16.98;;;;;;;;;;6215531;28;20062;-54
2022/03/08 14:49:49;;;;;;;36.10;16.75;;;;;;;;;;6214103;28;20049;-59
2022/03/08 14:52:51;;;;;;;;;;;;;;;;;;6218199;28;20153;-51
2022/03/08 14:55:51;;;;;;;41.00;16.98;;;;;;;;;;6215852;28;19929;-54
2022/03/08 14:58:52;;;;;;;41.20;18.45;;;;;;;;;;6158582;28;20610;-56
2022/03/08 15:01:53;;;;;;;39.08;17.13;;;;;;;;;;6216339;28;20047;-57
2022/03/08 15:04:53;;;;;;;44.35;17.45;;;;;;;;;;6218136;28;20410;-57
2022/03/08 15:07:54;;;;;;;35.22;17.50;;;;;;;;;;6217055;28;20049;-50
2022/03/08 15:10:55;;;;;;;39.75;16.75;;;;;;;;;;6214451;28;20134;-58
2022/03/08 15:13:56;;;;;;;34.33;16.95;;;;;;;;;;6225976;28;20790;-58
2022/03/08 15:16:57;;;;;;;37.22;16.02;;;;;;;;;;6227200;28;20115;-57
2022/03/08 15:19:58;;;;;;;37.33;16.55;;;;;;;;;;6220622;28;20057;-60
2022/03/08 15:22:59;;;;;;;39.80;17.65;;;;;;;;;;6225352;28;20107;-55
2022/03/08 15:25:59;;;;;;;43.28;16.67;;;;;;;;;;6223305;28;20053;-59
2022/03/08 15:29:01;;;;;;;34.00;16.00;;;;;;;;;;6218258;28;20057;-56
2022/03/08 15:32:02;;;;;;;37.07;17.33;;;;;;;;;;6224399;28;20053;-60
2022/03/08 15:35:06;;;;;;;39.85;16.58;;;;;;;;;;6220134;28;20929;-58
2022/03/08 15:38:07;;;;;;;38.72;17.42;;;;;;;;;;6215819;28;20689;-54
2022/03/08 15:41:08;;;;;;;41.08;17.15;;;;;;;;;;6220270;28;20060;-61
2022/03/08 15:44:09;;;;;;;41.67;18.02;;;;;;;;;;6224785;28;20059;-62
2022/03/08 15:47:10;;;;;;;40.65;16.67;;;;;;;;;;6222305;28;20515;-61
2022/03/08 15:50:11;;;;;;;38.17;16.08;;;;;;;;;;6217942;28;20054;-57
2022/03/08 15:53:12;;;;;;;43.38;16.38;;;;;;;;;;6228915;28;20499;-55
2022/03/08 15:56:15;;;;;;;45.72;18.70;;;;;;;;;;6222789;28;20067;-51
2022/03/08 15:59:16;;;;;;;45.47;17.38;;;;;;;;;;6226720;28;20084;-58
2022/03/08 16:02:16;;;;;;;49.22;18.40;;;;;;;;;;6219474;28;20482;-54
2022/03/08 16:05:17;;;;;;;49.28;16.55;;;;;;;;;;6225193;28;20069;-55
2022/03/08 16:08:23;;;;;;;49.13;17.75;;;;;;;;;;6218191;28;20558;-51
2022/03/08 16:11:25;;;;;;;41.42;17.33;;;;;;;;;;6218209;28;20052;-57
2022/03/08 16:14:26;;;;;;;43.67;17.30;;;;;;;;;;6225063;28;20080;-57
2022/03/08 16:17:28;;;;;;;45.03;17.10;;;;;;;;;;6217536;28;20111;-53
2022/03/08 16:20:29;;;;;;;45.80;18.92;;;;;;;;;;6227470;28;20056;-55
2022/03/08 16:23:31;;;;;;;52.05;20.02;;;;;;;;;;6220421;28;21369;-60
2022/03/08 16:26:31;;;;;;;56.72;18.75;;;;;;;;;;6220573;28;20073;-58
2022/03/08 16:29:32;;;;;;;43.78;16.92;;;;;;;;;;6218227;28;20504;-59
2022/03/08 16:32:33;;;;;;;40.53;17.40;;;;;;;;;;6223744;28;20037;-61
2022/03/08 16:35:34;;;;;;;41.85;17.55;;;;;;;;;;6226037;28;20546;-58
2022/03/08 16:38:35;;;;;;;27.80;11.95;;;;;;;;;;6220471;28;20057;-60
2022/03/08 16:41:36;;;;;;;31.45;13.20;;;;;;;;;;6228209;28;20068;-54
2022/03/08 16:44:36;;;;;;;30.20;12.25;;;;;;;;;;6224733;28;20057;-51
2022/03/08 16:47:39;;;;;;;28.70;13.27;;;;;;;;;;6216175;28;20551;-53
2022/03/08 16:50:40;;;;;;;34.78;12.82;;;;;;;;;;6219671;28;20131;-52
2022/03/08 16:53:41;;;;;;;34.60;13.13;;;;;;;;;;6223953;28;20053;-52
2022/03/08 16:56:42;;;;;;;36.17;12.88;;;;;;;;;;6217893;28;20052;-52
2022/03/08 16:59:43;;;;;;;28.98;12.48;;;;;;;;;;6217417;28;20161;-52
2022/03/08 17:02:43;;;;;;;32.72;14.18;;;;;;;;;;6219835;28;20050;-57
2022/03/08 17:05:45;;;;;;;32.05;13.45;;;;;;;;;;6217588;28;20496;-60
2022/03/08 17:08:45;;;;;;;35.72;16.13;;;;;;;;;;6215646;28;20053;-58
2022/03/08 17:11:47;;;;;;;38.67;13.63;;;;;;;;;;6218969;28;20049;-56
2022/03/08 17:14:48;;;;;;;35.25;14.63;;;;;;;;;;6220736;28;20148;-54
2022/03/08 17:17:49;;;;;;;39.45;15.55;;;;;;;;;;6221443;28;20060;-50
2022/03/08 17:20:50;;;;;;;41.33;15.93;;;;;;;;;;6221114;28;20050;-53
2022/03/08 17:23:51;;;;;;;41.03;14.82;;;;;;;;;;6221403;28;20046;-50
2022/03/08 17:26:51;;;;;;;56.03;21.63;;;;;;;;;;6220149;28;20069;-52
2022/03/08 17:29:52;;;;;;;41.70;17.23;;;;;;;;;;6216918;28;20074;-58
2022/03/08 17:32:53;;;;;;;36.90;15.02;;;;;;;;;;6219269;28;20045;-52
2022/03/08 17:35:54;;;;;;;46.40;17.17;;;;;;;;;;6219005;28;20094;-64